Time;durP1;ratioP1;P1;durP2;ratioP2;P2;SDS_P1;SDS_P2;PMS_P1;PMS_P2;Temp;Humidity;BMP_temperature;BMP_pressure;BME280_temperature;BME280_humidity;BME280_pressure;Samples;Min_cycle;Max_cycle;Signal;HPM_P1;HPM_P2
2023/09/30 00:00:11;;;;;;;3.53;1.70;;;17.40;99.90;;;;;;5042216;28;20455;-52
2023/09/30 00:02:38;;;;;;;5.03;1.77;;;;;;;;;;5042365;28;20494;-51
2023/09/30 00:05:05;;;;;;;3.77;1.50;;;17.60;99.90;;;;;;5045083;28;20475;-53
2023/09/30 00:07:34;;;;;;;3.47;1.67;;;17.60;99.90;;;;;;5045447;28;20523;-52
2023/09/30 00:10:01;;;;;;;4.00;1.87;;;17.70;99.90;;;;;;5044302;28;20498;-52
2023/09/30 00:12:28;;;;;;;5.60;1.40;;;17.60;99.90;;;;;;5042883;28;20479;-53
2023/09/30 00:14:55;;;;;;;3.50;1.43;;;17.70;99.90;;;;;;5041939;28;20516;-50
2023/09/30 00:17:22;;;;;;;2.93;1.53;;;18.10;99.90;;;;;;5041452;28;20943;-53
2023/09/30 00:19:50;;;;;;;5.57;2.03;;;17.60;99.90;;;;;;5040884;28;20804;-51
2023/09/30 00:22:17;;;;;;;4.40;1.60;;;17.60;99.90;;;;;;5043772;28;20460;-52
2023/09/30 00:24:46;;;;;;;5.67;1.63;;;18.00;99.90;;;;;;5042860;28;20454;-54
2023/09/30 00:27:12;;;;;;;6.73;1.97;;;17.50;99.90;;;;;;5040717;28;20471;-52
2023/09/30 00:29:39;;;;;;;4.93;1.90;;;17.50;99.90;;;;;;5044216;28;20448;-53
2023/09/30 00:32:06;;;;;;;3.77;1.50;;;;;;;;;;5043383;28;20476;-53
2023/09/30 00:34:34;;;;;;;5.03;1.90;;;17.40;99.90;;;;;;5042773;28;20503;-55
2023/09/30 00:37:01;;;;;;;5.13;1.97;;;17.40;99.90;;;;;;5043487;28;20757;-52
2023/09/30 00:39:33;;;;;;;5.00;2.13;;;17.30;99.90;;;;;;5044459;28;20972;-52
2023/09/30 00:42:04;;;;;;;5.20;2.43;;;17.10;99.90;;;;;;5044963;28;20491;-53
2023/09/30 00:44:31;;;;;;;2.20;1.30;;;17.30;99.90;;;;;;5042996;28;20432;-52
2023/09/30 00:46:59;;;;;;;9.57;2.63;;;;;;;;;;5041099;28;20491;-50
2023/09/30 00:49:26;;;;;;;9.50;2.47;;;16.70;99.90;;;;;;5041494;28;20514;-51
2023/09/30 00:51:54;;;;;;;4.10;2.03;;;17.00;99.90;;;;;;5040986;28;20509;-50
2023/09/30 00:54:22;;;;;;;7.20;4.00;;;17.10;99.90;;;;;;5041033;28;20510;-50
2023/09/30 00:56:55;;;;;;;6.33;2.30;;;16.90;99.90;;;;;;5041607;28;20464;-52
2023/09/30 00:59:26;;;;;;;5.57;3.40;;;16.80;99.90;;;;;;5041029;28;20507;-53
2023/09/30 01:01:59;;;;;;;6.50;3.00;;;16.80;99.90;;;;;;5041535;28;20436;-51
2023/09/30 01:04:28;;;;;;;3.53;2.20;;;16.80;99.90;;;;;;5041608;28;20440;-53
2023/09/30 01:06:58;;;;;;;3.40;1.90;;;17.30;99.90;;;;;;5041349;28;20566;-50
2023/09/30 01:09:25;;;;;;;3.20;1.80;;;16.60;99.90;;;;;;5040927;28;20444;-51
2023/09/30 01:11:52;;;;;;;4.87;2.20;;;16.40;99.90;;;;;;5040951;28;20467;-51
2023/09/30 01:14:29;;;;;;;3.67;1.50;;;16.80;99.90;;;;;;5041010;28;20531;-52
2023/09/30 01:16:57;;;;;;;2.57;1.60;;;16.70;99.90;;;;;;5042038;28;20904;-53
2023/09/30 01:19:25;;;;;;;3.80;2.00;;;16.50;99.90;;;;;;5041113;28;20480;-53
2023/09/30 01:22:05;;;;;;;6.73;2.50;;;16.50;99.90;;;;;;5041693;28;20432;-52
2023/09/30 01:24:38;;;;;;;4.40;2.07;;;16.40;99.90;;;;;;5041531;28;20471;-54
2023/09/30 01:27:08;;;;;;;3.80;1.87;;;16.20;99.90;;;;;;5041526;28;20494;-53
2023/09/30 01:29:38;;;;;;;12.83;2.37;;;16.70;99.90;;;;;;5041553;28;20527;-51
2023/09/30 01:32:07;;;;;;;7.77;3.00;;;16.20;99.90;;;;;;5041407;28;20486;-51
2023/09/30 01:34:34;;;;;;;4.20;1.87;;;15.70;99.90;;;;;;5041939;28;20579;-51
2023/09/30 01:37:02;;;;;;;6.17;2.00;;;15.70;99.90;;;;;;5041882;28;20484;-52
2023/09/30 01:39:29;;;;;;;5.23;2.37;;;16.00;99.90;;;;;;5042239;28;20435;-50
2023/09/30 01:41:56;;;;;;;6.50;2.60;;;16.30;99.90;;;;;;5041534;28;20445;-52
2023/09/30 01:44:23;;;;;;;4.73;1.90;;;16.10;99.90;;;;;;5041513;28;20459;-51
2023/09/30 01:46:51;;;;;;;6.43;1.73;;;;;;;;;;5041589;28;20944;-52
2023/09/30 01:49:20;;;;;;;9.90;2.57;;;;;;;;;;5041633;28;20506;-52
2023/09/30 01:51:47;;;;;;;9.63;2.37;;;16.00;99.90;;;;;;5042050;28;20514;-52
2023/09/30 01:54:15;;;;;;;7.03;1.97;;;15.90;99.90;;;;;;5041012;28;20440;-51
2023/09/30 01:56:42;;;;;;;5.70;2.53;;;;;;;;;;5041171;28;20464;-52
2023/09/30 01:59:09;;;;;;;4.57;1.43;;;16.00;99.90;;;;;;5041915;28;20470;-53
2023/09/30 02:01:36;;;;;;;5.40;3.30;;;16.00;99.90;;;;;;5041684;28;20467;-54
2023/09/30 02:04:03;;;;;;;12.50;2.47;;;15.80;99.90;;;;;;5041342;28;20452;-51
2023/09/30 02:06:35;;;;;;;3.97;2.13;;;15.80;99.90;;;;;;5042006;28;20606;-51
2023/09/30 02:09:03;;;;;;;10.63;2.50;;;15.80;99.90;;;;;;5050114;28;20428;-47
2023/09/30 02:11:34;;;;;;;9.40;3.03;;;15.70;99.90;;;;;;5056138;28;20514;-51
2023/09/30 02:14:02;;;;;;;6.63;2.37;;;15.70;99.90;;;;;;5055972;28;20471;-49
2023/09/30 02:16:29;;;;;;;9.57;2.20;;;;;;;;;;5056030;28;20865;-49
2023/09/30 02:18:56;;;;;;;7.50;2.30;;;16.10;99.90;;;;;;5055893;28;20436;-50
2023/09/30 02:21:23;;;;;;;9.93;2.10;;;15.60;99.90;;;;;;5055673;28;20428;-51
2023/09/30 02:23:54;;;;;;;13.33;3.00;;;;;;;;;;5055925;28;20432;-51
2023/09/30 02:26:22;;;;;;;7.63;2.20;;;;;;;;;;5055933;28;20476;-50
2023/09/30 02:28:52;;;;;;;5.67;2.40;;;15.40;99.90;;;;;;5056202;28;20440;-48
2023/09/30 02:31:19;;;;;;;9.90;2.63;;;15.50;99.90;;;;;;5056206;28;20471;-50
2023/09/30 02:33:45;;;;;;;12.50;2.13;;;15.30;99.90;;;;;;5056414;28;20427;-53
2023/09/30 02:36:13;;;;;;;7.83;2.53;;;;;;;;;;5056527;28;20459;-51
2023/09/30 02:38:43;;;;;;;10.20;3.13;;;15.40;99.90;;;;;;5056289;28;20483;-49
2023/09/30 02:41:10;;;;;;;7.60;2.40;;;15.40;99.90;;;;;;5056031;28;20431;-54
2023/09/30 02:43:38;;;;;;;11.90;2.57;;;15.30;99.90;;;;;;5055328;28;20452;-47
2023/09/30 02:46:09;;;;;;;9.63;2.90;;;15.30;99.90;;;;;;5056351;28;20456;-50
2023/09/30 02:48:40;;;;;;;11.13;3.57;;;15.20;99.90;;;;;;5055906;28;20409;-51
2023/09/30 02:51:11;;;;;;;4.60;2.43;;;15.40;99.90;;;;;;5055969;28;20463;-52
2023/09/30 02:53:38;;;;;;;11.23;3.27;;;15.30;99.90;;;;;;5055771;28;20907;-51
2023/09/30 02:56:05;;;;;;;6.10;3.00;;;15.30;99.90;;;;;;5055285;28;20484;-47
2023/09/30 02:58:33;;;;;;;5.30;2.63;;;;;;;;;;5055737;28;20444;-53
2023/09/30 03:01:00;;;;;;;9.23;2.80;;;15.30;99.90;;;;;;5055731;28;20436;-50
2023/09/30 03:03:30;;;;;;;6.23;2.43;;;15.40;99.90;;;;;;5055794;28;20448;-48
2023/09/30 03:05:57;;;;;;;5.80;2.20;;;14.80;99.90;;;;;;5056046;28;20502;-51
2023/09/30 03:08:26;;;;;;;9.37;3.00;;;15.00;99.90;;;;;;5059268;28;20470;-53
2023/09/30 03:10:53;;;;;;;7.10;2.67;;;15.00;99.90;;;;;;5059240;28;20949;-53
2023/09/30 03:13:21;;;;;;;9.30;2.50;;;15.50;99.90;;;;;;5058894;28;20444;-50
2023/09/30 03:15:49;;;;;;;8.70;2.77;;;;;;;;;;5058854;28;20483;-54
2023/09/30 03:18:17;;;;;;;9.27;2.73;;;15.10;99.90;;;;;;5059176;28;20397;-48
2023/09/30 03:20:45;;;;;;;4.47;2.30;;;15.10;99.90;;;;;;5058402;28;20467;-49
2023/09/30 03:23:14;;;;;;;10.43;3.37;;;15.20;99.90;;;;;;5058656;28;20475;-52
2023/09/30 03:25:42;;;;;;;3.60;2.23;;;;;;;;;;5058853;28;20459;-50
2023/09/30 03:28:09;;;;;;;7.83;3.00;;;15.00;99.90;;;;;;5058325;28;20463;-55
2023/09/30 03:30:35;;;;;;;5.30;2.27;;;14.80;99.90;;;;;;5058691;28;20444;-55
2023/09/30 03:33:04;;;;;;;7.40;2.70;;;15.60;99.90;;;;;;5058581;28;20463;-53
2023/09/30 03:35:32;;;;;;;6.27;2.80;;;14.50;99.90;;;;;;5058743;28;20428;-55
2023/09/30 03:38:01;;;;;;;7.13;2.60;;;15.00;99.90;;;;;;5058709;28;20466;-52
2023/09/30 03:40:33;;;;;;;4.93;2.33;;;15.50;99.90;;;;;;5058550;28;20924;-51
2023/09/30 03:43:01;;;;;;;7.73;3.07;;;;;;;;;;5058537;28;20431;-49
2023/09/30 03:45:28;;;;;;;2.70;1.90;;;14.90;99.90;;;;;;5058494;28;20492;-52
2023/09/30 03:47:55;;;;;;;11.53;2.47;;;14.90;99.90;;;;;;5058818;28;20487;-56
2023/09/30 03:50:23;;;;;;;8.73;2.90;;;;;;;;;;5058572;28;20455;-51
2023/09/30 03:52:50;;;;;;;4.23;2.70;;;15.00;99.90;;;;;;5058253;28;20474;-51
2023/09/30 03:55:20;;;;;;;15.57;4.97;;;14.60;99.90;;;;;;5058446;28;20451;-54
2023/09/30 03:57:47;;;;;;;12.40;3.67;;;14.80;99.90;;;;;;5058211;28;20464;-51
2023/09/30 04:00:18;;;;;;;7.33;2.80;;;14.70;99.90;;;;;;5058286;28;20452;-53
2023/09/30 04:02:48;;;;;;;8.30;2.63;;;14.70;99.90;;;;;;5057760;28;20484;-50
2023/09/30 04:05:17;;;;;;;6.80;2.50;;;14.50;99.90;;;;;;5058080;28;20436;-51
2023/09/30 04:07:45;;;;;;;8.50;2.73;;;14.60;99.90;;;;;;5057942;28;20468;-48
2023/09/30 04:10:12;;;;;;;8.53;3.10;;;14.50;99.90;;;;;;5057685;28;20468;-49
2023/09/30 04:12:42;;;;;;;6.67;2.70;;;14.40;99.90;;;;;;5057441;28;20444;-48
2023/09/30 04:15:12;;;;;;;11.30;2.77;;;14.50;99.90;;;;;;5058207;28;20461;-53
2023/09/30 04:17:39;;;;;;;11.47;2.70;;;14.00;99.90;;;;;;5056849;28;20458;-54
2023/09/30 04:20:10;;;;;;;10.00;2.90;;;14.60;99.90;;;;;;5057402;28;20459;-52
2023/09/30 04:22:39;;;;;;;5.43;2.53;;;15.70;99.90;;;;;;5057864;28;20475;-54
2023/09/30 04:25:09;;;;;;;8.90;2.83;;;14.40;99.90;;;;;;5057286;28;20475;-54
2023/09/30 04:27:40;;;;;;;11.63;3.13;;;13.80;99.90;;;;;;5058027;28;20478;-53
2023/09/30 04:30:10;;;;;;;5.87;3.30;;;14.20;99.90;;;;;;5057728;28;20431;-51
2023/09/30 04:32:38;;;;;;;7.80;2.80;;;14.40;99.90;;;;;;5057043;28;20425;-53
2023/09/30 04:35:05;;;;;;;13.17;3.97;;;14.20;99.90;;;;;;5057784;28;20476;-48
2023/09/30 04:37:36;;;;;;;12.53;3.07;;;14.30;99.90;;;;;;5057404;28;20441;-47
2023/09/30 04:40:07;;;;;;;13.10;3.20;;;14.10;99.90;;;;;;5057078;28;20502;-47
2023/09/30 04:42:36;;;;;;;7.97;2.73;;;14.20;99.90;;;;;;5057723;28;20426;-47
2023/09/30 04:45:06;;;;;;;10.17;4.20;;;14.30;99.90;;;;;;5057356;28;20537;-49
2023/09/30 04:47:33;;;;;;;11.87;3.17;;;14.20;99.90;;;;;;5057466;28;20496;-50
2023/09/30 04:50:04;;;;;;;16.30;3.20;;;14.20;99.90;;;;;;5057155;28;20468;-47
2023/09/30 04:52:31;;;;;;;7.93;2.97;;;14.30;99.90;;;;;;5057336;28;20432;-45
2023/09/30 04:54:59;;;;;;;14.47;4.10;;;14.30;99.90;;;;;;5057341;28;20451;-47
2023/09/30 04:57:26;;;;;;;5.13;3.40;;;14.20;99.90;;;;;;5056911;28;20454;-44
2023/09/30 04:59:55;;;;;;;7.07;3.27;;;14.10;99.90;;;;;;5057561;28;20478;-52
2023/09/30 05:02:25;;;;;;;8.10;3.77;;;14.10;99.90;;;;;;5056953;28;20499;-49
2023/09/30 05:04:52;;;;;;;7.87;3.43;;;14.40;99.90;;;;;;5057225;28;20432;-46
2023/09/30 05:07:19;;;;;;;8.20;3.00;;;14.10;99.90;;;;;;5056635;28;20551;-51
2023/09/30 05:09:46;;;;;;;10.30;3.17;;;14.20;99.90;;;;;;5057562;28;20475;-47
2023/09/30 05:12:12;;;;;;;4.87;2.53;;;14.10;99.90;;;;;;5057601;28;20425;-48
2023/09/30 05:14:40;;;;;;;9.43;2.43;;;14.10;99.90;;;;;;5057057;28;20435;-49
2023/09/30 05:17:08;;;;;;;10.60;2.87;;;14.30;99.90;;;;;;5057035;28;20452;-49
2023/09/30 05:19:37;;;;;;;6.27;2.70;;;14.10;99.90;;;;;;5057420;28;20512;-48
2023/09/30 05:22:05;;;;;;;17.93;3.13;;;14.10;99.90;;;;;;5057891;28;20440;-46
2023/09/30 05:24:32;;;;;;;9.57;3.30;;;14.00;99.90;;;;;;5057801;28;20944;-46
2023/09/30 05:26:59;;;;;;;12.57;3.10;;;14.10;99.90;;;;;;5057344;28;20487;-51
2023/09/30 05:29:26;;;;;;;10.37;3.07;;;13.90;99.90;;;;;;5057128;28;20478;-52
2023/09/30 05:31:52;;;;;;;6.00;2.97;;;13.90;99.90;;;;;;5057813;28;20431;-50
2023/09/30 05:34:19;;;;;;;12.60;2.90;;;14.10;99.90;;;;;;5057376;28;20431;-50
2023/09/30 05:36:47;;;;;;;5.97;3.20;;;14.20;99.90;;;;;;5057114;28;20455;-52
2023/09/30 05:39:19;;;;;;;11.03;2.87;;;13.50;99.90;;;;;;5057053;28;20424;-50
2023/09/30 05:41:46;;;;;;;9.70;3.30;;;14.00;99.90;;;;;;5056791;28;20468;-51
2023/09/30 05:44:14;;;;;;;7.80;3.43;;;13.90;99.90;;;;;;5056846;28;20475;-50
2023/09/30 05:46:42;;;;;;;8.10;3.33;;;13.10;99.90;;;;;;5056632;28;20468;-54
2023/09/30 05:49:13;;;;;;;6.10;3.17;;;;;;;;;;5056118;28;20543;-52
2023/09/30 05:51:43;;;;;;;8.53;2.87;;;14.10;99.90;;;;;;5056691;28;20436;-51
2023/09/30 05:54:14;;;;;;;9.27;2.90;;;14.20;99.90;;;;;;5056408;28;20428;-53
2023/09/30 05:56:49;;;;;;;8.07;2.87;;;14.20;99.90;;;;;;5056829;28;20428;-51
2023/09/30 05:59:17;;;;;;;4.43;2.43;;;;;;;;;;5055913;28;20515;-55
2023/09/30 06:01:46;;;;;;;8.07;3.07;;;14.20;99.90;;;;;;5056365;28;20428;-54
2023/09/30 06:04:13;;;;;;;11.93;3.63;;;14.10;99.90;;;;;;5056561;28;20471;-49
2023/09/30 06:06:40;;;;;;;3.20;2.20;;;14.50;99.90;;;;;;5056116;28;20440;-53
2023/09/30 06:09:08;;;;;;;7.20;3.47;;;;;;;;;;5056628;28;20476;-50
2023/09/30 06:11:38;;;;;;;6.37;3.30;;;14.50;99.90;;;;;;5056300;28;20464;-54
2023/09/30 06:14:06;;;;;;;6.40;2.60;;;14.40;99.90;;;;;;5056265;28;20440;-54
2023/09/30 06:16:33;;;;;;;14.20;3.20;;;14.70;99.90;;;;;;5056126;28;20535;-51
2023/09/30 06:19:01;;;;;;;6.93;2.60;;;14.60;99.90;;;;;;5056411;28;20423;-49
2023/09/30 06:21:29;;;;;;;9.80;3.20;;;14.80;99.90;;;;;;5056207;28;20472;-51
2023/09/30 06:23:56;;;;;;;6.47;3.03;;;14.70;99.90;;;;;;5056247;28;20508;-51
2023/09/30 06:26:28;;;;;;;9.03;3.60;;;14.00;99.90;;;;;;5056596;28;20448;-48
2023/09/30 06:29:00;;;;;;;6.07;2.50;;;14.70;99.90;;;;;;5056728;28;20468;-55
2023/09/30 06:31:29;;;;;;;7.70;3.43;;;14.80;99.90;;;;;;5056308;28;20435;-52
2023/09/30 06:33:58;;;;;;;11.13;3.10;;;;;;;;;;5056214;28;20436;-53
2023/09/30 06:36:25;;;;;;;9.53;2.90;;;14.60;99.90;;;;;;5055889;28;20514;-51
2023/09/30 06:38:52;;;;;;;10.60;3.03;;;;;;;;;;5056004;28;20555;-54
2023/09/30 06:41:19;;;;;;;7.10;3.33;;;14.90;99.90;;;;;;5057724;28;20432;-52
2023/09/30 06:43:46;;;;;;;6.93;2.23;;;14.90;99.90;;;;;;5059782;28;20472;-54
2023/09/30 06:46:15;;;;;;;14.83;3.07;;;14.90;99.90;;;;;;5060122;28;20458;-51
2023/09/30 06:48:42;;;;;;;11.50;3.10;;;;;;;;;;5059894;28;20563;-50
2023/09/30 06:51:17;;;;;;;5.63;2.80;;;15.20;99.90;;;;;;5059429;28;20424;-51
2023/09/30 06:53:45;;;;;;;14.40;3.10;;;;;;;;;;5059624;28;20440;-53
2023/09/30 06:56:12;;;;;;;3.53;3.10;;;15.00;99.90;;;;;;5059202;28;20442;-52
2023/09/30 06:58:42;;;;;;;7.00;3.17;;;16.80;99.90;;;;;;5059293;28;20440;-51
2023/09/30 07:01:09;;;;;;;8.70;3.50;;;;;;;;;;5059287;28;20464;-56
2023/09/30 07:03:37;;;;;;;13.30;3.83;;;15.10;99.90;;;;;;5059535;28;20967;-54
2023/09/30 07:06:05;;;;;;;6.97;4.60;;;15.90;99.90;;;;;;5059314;28;20479;-52
2023/09/30 07:08:32;;;;;;;7.93;2.37;;;15.30;99.90;;;;;;5058817;28;20471;-52
2023/09/30 07:11:00;;;;;;;11.37;2.70;;;;;;;;;;5059393;28;20483;-53
2023/09/30 07:13:27;;;;;;;8.23;2.47;;;14.90;99.90;;;;;;5058991;28;20804;-54
2023/09/30 07:15:54;;;;;;;8.77;2.33;;;;;;;;;;5059194;28;20439;-52
2023/09/30 07:18:21;;;;;;;10.63;3.27;;;15.30;99.90;;;;;;5059063;28;20471;-52
2023/09/30 07:20:49;;;;;;;17.03;4.90;;;15.30;99.90;;;;;;5059040;28;20440;-55
2023/09/30 07:23:16;;;;;;;8.53;2.77;;;;;;;;;;5059266;28;20471;-54
2023/09/30 07:25:45;;;;;;;7.40;2.20;;;15.80;99.90;;;;;;5059511;28;20456;-54
2023/09/30 07:28:13;;;;;;;11.27;2.70;;;;;;;;;;5058604;28;20488;-55
2023/09/30 07:30:40;;;;;;;6.43;3.33;;;;;;;;;;5058752;28;20458;-52
2023/09/30 07:33:07;;;;;;;7.00;2.30;;;15.50;99.90;;;;;;5058739;28;20472;-54
2023/09/30 07:35:35;;;;;;;9.57;2.30;;;15.60;99.90;;;;;;5058714;28;20455;-54
2023/09/30 07:38:04;;;;;;;12.13;3.60;;;15.70;99.90;;;;;;5058633;28;20484;-57
2023/09/30 07:40:32;;;;;;;10.60;3.70;;;15.80;99.90;;;;;;5058868;28;20462;-55
2023/09/30 07:42:59;;;;;;;7.83;2.70;;;15.70;99.90;;;;;;5058782;28;20510;-54
2023/09/30 07:45:26;;;;;;;9.33;3.00;;;15.70;99.90;;;;;;5058653;28;20439;-55
2023/09/30 07:47:53;;;;;;;9.17;2.87;;;15.80;99.90;;;;;;5058645;28;20471;-50
2023/09/30 07:50:20;;;;;;;10.07;3.23;;;15.80;99.90;;;;;;5058626;28;20433;-55
2023/09/30 07:52:47;;;;;;;7.77;2.23;;;;;;;;;;5056985;28;20462;-54
2023/09/30 07:55:15;;;;;;;8.77;3.20;;;15.60;99.90;;;;;;5058357;28;20467;-55
2023/09/30 07:57:45;;;;;;;14.27;3.23;;;15.80;99.90;;;;;;5058467;28;20462;-54
2023/09/30 08:00:21;;;;;;;8.87;3.03;;;15.80;99.90;;;;;;5058179;28;20429;-56
2023/09/30 08:02:48;;;;;;;8.87;3.23;;;15.40;99.90;;;;;;5058721;28;20518;-52
2023/09/30 08:05:15;;;;;;;7.60;2.90;;;15.60;99.90;;;;;;5058498;28;20459;-55
2023/09/30 08:07:42;;;;;;;5.97;2.47;;;15.70;99.90;;;;;;5058264;28;20480;-55
2023/09/30 08:10:13;;;;;;;5.97;2.60;;;15.60;99.90;;;;;;5058040;28;20472;-54
2023/09/30 08:12:48;;;;;;;7.80;2.63;;;15.70;99.90;;;;;;5057963;28;20495;-53
2023/09/30 08:15:15;;;;;;;8.00;2.50;;;15.70;99.90;;;;;;5057793;28;20428;-55
2023/09/30 08:17:42;;;;;;;9.83;3.30;;;15.80;99.90;;;;;;5058128;28;20448;-55
2023/09/30 08:20:09;;;;;;;6.47;3.27;;;16.00;99.90;;;;;;5058029;28;20506;-53
2023/09/30 08:22:36;;;;;;;7.63;2.57;;;;;;;;;;5057672;28;20439;-55
2023/09/30 08:25:05;;;;;;;6.80;2.33;;;16.40;99.90;;;;;;5058015;28;20479;-56
2023/09/30 08:27:32;;;;;;;14.63;3.00;;;16.40;99.90;;;;;;5058151;28;20492;-54
2023/09/30 08:30:05;;;;;;;10.17;3.50;;;16.70;99.90;;;;;;5057469;28;20951;-55
2023/09/30 08:32:33;;;;;;;5.87;2.43;;;17.20;99.90;;;;;;5057545;28;20429;-51
2023/09/30 08:35:00;;;;;;;5.77;2.47;;;18.20;99.90;;;;;;5057623;28;20494;-54
2023/09/30 08:37:31;;;;;;;17.43;2.60;;;18.40;99.90;;;;;;5057691;28;20452;-52
2023/09/30 08:39:58;;;;;;;9.63;3.43;;;18.70;99.90;;;;;;5057476;28;20475;-50
2023/09/30 08:42:29;;;;;;;8.17;2.50;;;18.80;99.90;;;;;;5057825;28;20478;-52
2023/09/30 08:44:56;;;;;;;7.80;2.07;;;18.90;99.90;;;;;;5057539;28;20524;-53
2023/09/30 08:47:28;;;;;;;11.03;2.93;;;18.60;99.90;;;;;;5057336;28;20420;-54
2023/09/30 08:49:57;;;;;;;5.97;2.30;;;18.50;99.90;;;;;;5057723;28;20480;-53
2023/09/30 08:52:27;;;;;;;7.57;2.87;;;19.40;99.90;;;;;;5057420;28;20425;-53
2023/09/30 08:54:56;;;;;;;11.30;3.27;;;19.40;99.90;;;;;;5057804;28;20429;-56
2023/09/30 08:57:24;;;;;;;4.67;2.90;;;;;;;;;;5057819;28;20421;-55
2023/09/30 08:59:53;;;;;;;5.50;2.60;;;20.40;99.90;;;;;;5057512;28;20447;-50
2023/09/30 09:02:20;;;;;;;13.60;2.27;;;20.00;99.90;;;;;;5057915;28;20443;-51
2023/09/30 09:04:49;;;;;;;8.73;2.60;;;19.60;99.90;;;;;;5057075;28;20448;-46
2023/09/30 09:07:16;;;;;;;5.83;2.27;;;19.50;99.90;;;;;;5057172;28;20440;-55
2023/09/30 09:10:07;;;;;;;10.03;2.50;;;20.20;99.90;;;;;;5057048;28;20484;-53
2023/09/30 09:12:35;;;;;;;4.87;2.53;;;20.40;99.90;;;;;;5056778;28;20494;-51
2023/09/30 09:15:03;;;;;;;4.73;2.13;;;20.30;99.90;;;;;;5057004;28;20448;-50
2023/09/30 09:17:50;;;;;;;9.90;3.10;;;20.00;99.90;;;;;;5056483;28;20475;-55
2023/09/30 09:20:28;;;;;;;7.03;2.37;;;19.80;99.90;;;;;;5057140;28;20471;-49
2023/09/30 09:22:58;;;;;;;11.43;2.50;;;19.90;99.90;;;;;;5057089;28;20452;-53
2023/09/30 09:25:25;;;;;;;9.83;2.57;;;20.00;99.90;;;;;;5057216;28;20425;-54
2023/09/30 09:27:53;;;;;;;18.83;3.13;;;;;;;;;;5056749;28;20476;-55
2023/09/30 09:30:21;;;;;;;9.67;3.90;;;20.40;99.90;;;;;;5056921;28;20435;-54
2023/09/30 09:33:01;;;;;;;12.30;4.63;;;21.30;99.90;;;;;;5056498;28;20456;-56
2023/09/30 09:35:32;;;;;;;4.17;2.03;;;22.00;99.90;;;;;;5056552;28;20554;-51
2023/09/30 09:38:00;;;;;;;6.30;2.40;;;22.70;99.90;;;;;;5056548;28;20799;-52
2023/09/30 09:40:28;;;;;;;14.07;2.87;;;22.70;99.90;;;;;;5056873;28;20466;-53
2023/09/30 09:42:57;;;;;;;5.07;2.20;;;23.60;99.90;;;;;;5056030;28;20860;-53
2023/09/30 09:45:25;;;;;;;9.57;2.70;;;23.40;99.90;;;;;;5056747;28;20440;-52
2023/09/30 09:47:53;;;;;;;2.70;1.90;;;23.70;99.90;;;;;;5056653;28;20475;-56
2023/09/30 09:50:21;;;;;;;6.07;2.23;;;24.80;99.90;;;;;;5056434;28;20428;-54
2023/09/30 09:52:53;;;;;;;8.10;2.50;;;24.70;99.90;;;;;;5056410;28;20460;-52
2023/09/30 09:55:21;;;;;;;6.83;2.40;;;25.30;99.90;;;;;;5056454;28;20473;-56
2023/09/30 09:57:49;;;;;;;8.37;2.57;;;;;;;;;;5055837;28;20447;-53
2023/09/30 10:00:18;;;;;;;7.70;2.90;;;26.50;99.90;;;;;;5055419;28;20424;-52
2023/09/30 10:02:46;;;;;;;6.20;2.13;;;25.80;99.90;;;;;;5055466;28;20520;-51
2023/09/30 10:05:17;;;;;;;8.27;2.93;;;26.00;97.20;;;;;;5056009;28;20433;-52
2023/09/30 10:07:55;;;;;;;10.70;2.80;;;25.90;99.90;;;;;;5056030;28;20413;-49
2023/09/30 10:10:25;;;;;;;3.63;1.70;;;25.30;99.90;;;;;;5055728;28;20439;-53
2023/09/30 10:12:52;;;;;;;7.87;2.33;;;25.40;98.10;;;;;;5055465;28;20474;-54
2023/09/30 10:15:43;;;;;;;3.50;1.90;;;23.90;99.90;;;;;;5056182;28;20444;-53
2023/09/30 10:18:11;;;;;;;7.63;2.20;;;23.30;99.90;;;;;;5060370;28;20420;-51
2023/09/30 10:20:41;;;;;;;7.23;2.10;;;23.20;99.90;;;;;;5060539;28;20443;-53
2023/09/30 10:23:32;;;;;;;6.53;2.20;;;23.20;99.90;;;;;;5060783;28;20454;-51
2023/09/30 10:26:17;;;;;;;3.33;2.20;;;22.80;99.90;;;;;;5060532;28;20471;-51
2023/09/30 10:28:46;;;;;;;4.33;1.70;;;22.90;99.90;;;;;;5060493;28;20468;-52
2023/09/30 10:31:18;;;;;;;3.60;1.57;;;22.90;99.90;;;;;;5060085;28;20447;-55
2023/09/30 10:34:25;;;;;;;4.23;1.87;;;23.80;99.90;;;;;;5060366;28;20415;-51
2023/09/30 10:36:52;;;;;;;5.83;3.07;;;23.80;99.70;;;;;;5060172;28;20416;-52
2023/09/30 10:39:52;;;;;;;6.90;3.60;;;23.20;99.90;;;;;;5059808;28;20432;-52
2023/09/30 10:42:45;;;;;;;9.30;1.70;;;22.70;99.90;;;;;;5059617;28;20432;-52
2023/09/30 10:45:46;;;;;;;4.37;2.43;;;22.20;99.90;;;;;;5059497;28;20479;-54
2023/09/30 10:48:41;;;;;;;6.10;2.20;;;21.70;99.90;;;;;;5059843;28;20447;-52
2023/09/30 10:51:20;;;;;;;5.17;1.77;;;21.30;99.90;;;;;;5059545;28;20467;-51
2023/09/30 10:53:56;;;;;;;5.17;1.70;;;21.00;99.90;;;;;;5059557;28;20543;-55
2023/09/30 10:56:26;;;;;;;5.87;2.17;;;20.80;99.90;;;;;;5059518;28;20452;-49
2023/09/30 10:58:57;;;;;;;9.67;2.50;;;20.80;99.90;;;;;;5059455;28;20447;-49
2023/09/30 11:01:25;;;;;;;4.60;1.93;;;;;;;;;;5059578;28;20939;-53
2023/09/30 11:04:03;;;;;;;3.97;2.73;;;20.20;99.90;;;;;;5059706;28;20435;-50
2023/09/30 11:06:30;;;;;;;9.83;2.33;;;;;;;;;;5059401;28;20468;-49
2023/09/30 11:08:59;;;;;;;22.40;2.23;;;20.10;99.90;;;;;;5059228;28;20458;-49
2023/09/30 11:11:37;;;;;;;8.23;2.80;;;20.00;99.90;;;;;;5059415;28;20467;-48
2023/09/30 11:14:17;;;;;;;6.30;1.60;;;20.10;99.90;;;;;;5059523;28;20452;-51
2023/09/30 11:16:48;;;;;;;3.30;1.83;;;18.80;99.90;;;;;;5059569;28;20487;-52
2023/09/30 11:19:15;;;;;;;4.50;1.43;;;;;;;;;;5058863;28;20862;-50
2023/09/30 11:21:43;;;;;;;4.20;2.00;;;20.50;99.90;;;;;;5059205;28;20558;-50
2023/09/30 11:24:11;;;;;;;10.40;2.23;;;20.30;99.90;;;;;;5059291;28;20510;-49
2023/09/30 11:26:41;;;;;;;2.50;1.30;;;19.90;99.90;;;;;;5059093;28;20508;-50
2023/09/30 11:29:11;;;;;;;6.40;2.33;;;20.00;99.90;;;;;;5059036;28;20468;-46
2023/09/30 11:31:39;;;;;;;7.37;2.30;;;19.90;99.90;;;;;;5059617;28;20492;-49
2023/09/30 11:34:07;;;;;;;8.77;1.83;;;19.70;99.90;;;;;;5059357;28;20429;-46
2023/09/30 11:36:36;;;;;;;4.17;2.07;;;20.00;99.90;;;;;;5058815;28;20476;-51
2023/09/30 11:39:03;;;;;;;6.00;2.40;;;;;;;;;;5058776;28;20439;-52
2023/09/30 11:41:39;;;;;;;4.23;1.80;;;20.40;99.90;;;;;;5058842;28;20444;-53
2023/09/30 11:44:08;;;;;;;4.73;2.07;;;20.40;99.90;;;;;;5058605;28;20439;-51
2023/09/30 11:46:52;;;;;;;4.80;2.10;;;20.20;99.90;;;;;;5058224;28;20479;-49
2023/09/30 11:49:27;;;;;;;7.40;1.67;;;19.80;99.90;;;;;;5059025;28;20498;-50
2023/09/30 11:51:54;;;;;;;3.50;1.63;;;20.00;99.90;;;;;;5058633;28;20523;-48
2023/09/30 11:54:25;;;;;;;7.70;2.23;;;20.00;99.90;;;;;;5058276;28;20440;-49
2023/09/30 11:56:52;;;;;;;3.03;1.87;;;19.90;99.90;;;;;;5058770;28;20452;-50
2023/09/30 11:59:22;;;;;;;7.10;1.90;;;19.90;99.90;;;;;;5058470;28;20491;-51
2023/09/30 12:01:51;;;;;;;9.77;2.23;;;20.10;99.90;;;;;;5058632;28;20464;-53
2023/09/30 12:04:19;;;;;;;10.47;3.40;;;;;;;;;;5058121;28;20463;-52
2023/09/30 12:06:46;;;;;;;4.17;1.77;;;20.40;99.90;;;;;;5058531;28;20440;-54
2023/09/30 12:09:14;;;;;;;5.33;2.00;;;20.80;99.90;;;;;;5057983;28;20484;-50
2023/09/30 12:11:45;;;;;;;5.83;2.40;;;20.50;99.90;;;;;;5058351;28;20444;-49
2023/09/30 12:14:13;;;;;;;6.70;1.93;;;20.50;99.90;;;;;;5058207;28;20495;-51
2023/09/30 12:16:41;;;;;;;5.90;2.30;;;20.60;99.90;;;;;;5057960;28;20526;-48
2023/09/30 12:19:10;;;;;;;8.73;1.83;;;20.90;99.90;;;;;;5058048;28;20540;-52
2023/09/30 12:21:37;;;;;;;4.60;1.80;;;20.80;99.90;;;;;;5057904;28;20442;-50
2023/09/30 12:24:04;;;;;;;7.57;1.90;;;20.60;99.90;;;;;;5058123;28;20452;-50
2023/09/30 12:26:34;;;;;;;5.23;1.77;;;20.20;99.90;;;;;;5058206;28;20483;-52
2023/09/30 12:29:01;;;;;;;4.60;1.70;;;20.20;99.90;;;;;;5057624;28;20484;-54
2023/09/30 12:31:28;;;;;;;4.13;2.13;;;20.20;99.90;;;;;;5057643;28;20455;-54
2023/09/30 12:33:55;;;;;;;2.73;2.07;;;20.80;99.90;;;;;;5057758;28;20432;-54
2023/09/30 12:36:24;;;;;;;8.80;3.00;;;20.20;99.90;;;;;;5057551;28;20475;-49
2023/09/30 12:38:51;;;;;;;7.07;2.70;;;20.50;99.90;;;;;;5056692;28;20513;-49
2023/09/30 12:41:19;;;;;;;5.00;2.47;;;20.20;99.90;;;;;;5057823;28;20467;-50
2023/09/30 12:43:46;;;;;;;3.63;1.97;;;20.30;99.90;;;;;;5057468;28;20424;-52
2023/09/30 12:46:13;;;;;;;3.67;1.73;;;20.60;99.90;;;;;;5058033;28;20432;-53
2023/09/30 12:48:41;;;;;;;4.13;1.90;;;20.50;99.90;;;;;;5057341;28;20489;-54
2023/09/30 12:51:08;;;;;;;2.23;1.67;;;20.70;99.90;;;;;;5057336;28;20440;-52
2023/09/30 12:53:39;;;;;;;8.10;2.60;;;21.20;99.90;;;;;;5057315;28;20476;-53
2023/09/30 12:56:06;;;;;;;135.43;38.07;;;21.20;99.90;;;;;;5057848;28;20459;-54
2023/09/30 12:58:33;;;;;;;16.87;5.57;;;21.50;99.90;;;;;;5057307;28;20471;-53
2023/09/30 13:01:00;;;;;;;6.33;2.60;;;21.90;99.90;;;;;;5057227;28;20478;-54
2023/09/30 13:03:27;;;;;;;43.93;27.20;;;21.70;99.90;;;;;;5057237;28;20463;-54
2023/09/30 13:05:54;;;;;;;8.43;5.63;;;21.60;99.90;;;;;;5056787;28;20487;-51
2023/09/30 13:08:21;;;;;;;16.30;5.80;;;21.50;99.90;;;;;;5056836;28;20472;-52